createdAt,value
2022-12-17T00:02:14.485Z,95.90
2022-12-17T00:05:00.369Z,95.70
2022-12-17T00:07:46.375Z,95.70
2022-12-17T00:10:33.967Z,95.80
2022-12-17T00:13:34.636Z,95.80
2022-12-17T00:16:20.809Z,95.70
2022-12-17T00:19:12.365Z,95.80
2022-12-17T00:21:58.016Z,95.70
2022-12-17T00:24:56.399Z,95.60
2022-12-17T00:27:43.512Z,95.70
2022-12-17T00:30:31.851Z,95.70
2022-12-17T00:33:17.822Z,95.60
2022-12-17T00:36:09.977Z,95.60
2022-12-17T00:38:56.059Z,95.80
2022-12-17T00:41:42.490Z,95.70
2022-12-17T00:44:30.763Z,95.60
2022-12-17T00:47:16.830Z,95.60
2022-12-17T00:50:02.773Z,95.60
2022-12-17T00:52:48.926Z,95.70
2022-12-17T00:55:35.173Z,95.70
2022-12-17T00:58:21.537Z,95.80
2022-12-17T01:01:08.644Z,95.60
2022-12-17T01:03:54.746Z,95.70
2022-12-17T01:06:42.657Z,95.70
2022-12-17T01:09:28.790Z,95.70
2022-12-17T01:12:14.830Z,95.70
2022-12-17T01:15:00.720Z,95.60
2022-12-17T01:17:53.067Z,95.60
2022-12-17T01:20:41.907Z,95.60
2022-12-17T01:23:28.309Z,95.60
2022-12-17T01:26:15.419Z,95.70
2022-12-17T01:29:01.768Z,95.80
2022-12-17T01:31:48.284Z,95.70
2022-12-17T01:34:37.175Z,95.60
2022-12-17T01:37:19.607Z,95.50
2022-12-17T01:40:05.602Z,95.50
2022-12-17T01:42:57.592Z,95.50
2022-12-17T01:45:45.409Z,95.80
2022-12-17T01:48:35.714Z,95.70
2022-12-17T01:51:23.749Z,95.70
2022-12-17T01:54:12.840Z,95.60
2022-12-17T01:57:01.217Z,95.70
2022-12-17T02:00:04.000Z,95.70
2022-12-17T02:03:01.326Z,95.70
2022-12-17T02:05:59.247Z,95.70
2022-12-17T02:08:57.200Z,95.60
2022-12-17T02:11:53.442Z,95.60
2022-12-17T02:14:47.920Z,95.60
2022-12-17T02:17:40.204Z,95.60
2022-12-17T02:20:41.678Z,95.70
2022-12-17T02:23:42.830Z,95.60
2022-12-17T02:26:35.827Z,95.60
2022-12-17T02:29:28.010Z,95.50
2022-12-17T02:32:14.107Z,96.00
2022-12-17T02:35:05.177Z,95.40
2022-12-17T02:37:53.455Z,95.60
2022-12-17T02:40:42.499Z,95.80
2022-12-17T02:43:30.065Z,95.70
2022-12-17T02:46:26.169Z,95.50
2022-12-17T02:49:12.421Z,95.40
2022-12-17T02:51:59.283Z,95.20
2022-12-17T02:54:48.688Z,95.60
2022-12-17T02:57:34.568Z,95.30
2022-12-17T03:00:20.311Z,95.40
2022-12-17T03:03:07.384Z,95.50
2022-12-17T03:05:53.308Z,95.40
2022-12-17T03:08:39.252Z,95.40
2022-12-17T03:11:25.016Z,95.50
2022-12-17T03:14:11.056Z,95.50
2022-12-17T03:16:57.911Z,95.40
2022-12-17T03:19:44.956Z,95.40
2022-12-17T03:22:30.993Z,95.40
2022-12-17T03:25:16.911Z,95.30
2022-12-17T03:28:02.832Z,95.40
2022-12-17T03:30:49.475Z,95.30
2022-12-17T03:33:35.803Z,95.70
2022-12-17T03:36:23.747Z,95.40
2022-12-17T03:39:09.850Z,95.40
2022-12-17T03:41:55.755Z,95.30
2022-12-17T03:44:41.583Z,95.30
2022-12-17T03:47:27.650Z,95.30
2022-12-17T03:50:13.516Z,95.30
2022-12-17T03:53:00.714Z,95.40
2022-12-17T03:55:45.874Z,95.30
2022-12-17T03:58:31.767Z,95.40
2022-12-17T04:01:17.909Z,95.20
2022-12-17T04:04:03.779Z,95.20
2022-12-17T04:06:49.672Z,95.30
2022-12-17T04:09:37.160Z,95.40
2022-12-17T04:12:22.930Z,95.30
2022-12-17T04:15:08.832Z,95.50
2022-12-17T04:17:54.864Z,95.30
2022-12-17T04:20:40.819Z,95.40
2022-12-17T04:23:26.798Z,95.30
2022-12-17T04:26:14.137Z,95.40
2022-12-17T04:29:00.129Z,95.40
2022-12-17T04:31:46.040Z,95.30
2022-12-17T04:34:31.867Z,95.40
2022-12-17T04:37:17.860Z,95.40
2022-12-17T04:40:03.838Z,95.30
2022-12-17T04:42:50.884Z,95.40
2022-12-17T04:45:36.745Z,95.20
2022-12-17T04:48:24.776Z,95.30
2022-12-17T04:51:10.945Z,95.40
2022-12-17T04:53:53.299Z,95.40
2022-12-17T04:56:39.556Z,95.40
2022-12-17T04:59:26.479Z,95.30
2022-12-17T05:02:12.552Z,95.30
2022-12-17T05:04:58.710Z,95.40
2022-12-17T05:07:44.722Z,95.40
2022-12-17T05:10:30.879Z,95.40
2022-12-17T05:13:17.085Z,95.40
2022-12-17T05:16:06.960Z,95.70
2022-12-17T05:18:53.083Z,95.30
2022-12-17T05:21:47.492Z,95.20
2022-12-17T05:24:33.216Z,95.30
2022-12-17T05:27:19.004Z,95.60
2022-12-17T05:30:04.966Z,95.30
2022-12-17T05:32:51.976Z,95.30
2022-12-17T05:35:38.046Z,95.20
2022-12-17T05:38:24.820Z,95.20
2022-12-17T05:41:11.311Z,95.40
2022-12-17T05:43:57.145Z,95.40
2022-12-17T05:46:43.251Z,95.20
2022-12-17T05:49:30.229Z,95.20
2022-12-17T05:52:16.115Z,95.10
2022-12-17T05:55:01.929Z,95.10
2022-12-17T05:57:50.469Z,95.30
2022-12-17T06:00:39.036Z,95.20
2022-12-17T06:03:25.098Z,95.20
2022-12-17T06:06:16.217Z,95.20
2022-12-17T06:09:02.004Z,95.30
2022-12-17T06:11:47.192Z,95.20
2022-12-17T06:14:33.115Z,95.20
2022-12-17T06:17:19.086Z,95.10
2022-12-17T06:20:04.999Z,95.10
2022-12-17T06:22:51.961Z,95.10
2022-12-17T06:25:38.000Z,95.10
2022-12-17T06:28:23.819Z,95.10
2022-12-17T06:31:21.528Z,95.10
2022-12-17T06:34:07.446Z,95.20
2022-12-17T06:36:53.339Z,95.10
2022-12-17T06:39:40.450Z,95.20
2022-12-17T06:42:26.578Z,95.00
2022-12-17T06:45:12.543Z,95.10
2022-12-17T06:47:58.456Z,95.00
2022-12-17T06:50:44.386Z,95.10
2022-12-17T06:53:30.240Z,95.20
2022-12-17T06:56:18.457Z,95.20
2022-12-17T06:59:04.304Z,95.30
2022-12-17T07:01:50.310Z,95.10
2022-12-17T07:04:36.407Z,95.10
2022-12-17T07:07:22.148Z,95.10
2022-12-17T07:10:12.288Z,95.10
2022-12-17T07:13:01.510Z,95.10
2022-12-17T07:15:47.448Z,95.20
2022-12-17T07:18:33.336Z,95.20
2022-12-17T07:21:19.330Z,95.20
2022-12-17T07:24:05.268Z,95.10
2022-12-17T07:26:51.056Z,95.10
2022-12-17T07:29:38.101Z,95.20
2022-12-17T07:32:24.295Z,95.20
2022-12-17T07:35:10.144Z,95.20
2022-12-17T07:37:56.058Z,95.20
2022-12-17T07:40:41.983Z,95.20
2022-12-17T07:43:31.769Z,95.20
2022-12-17T07:46:18.885Z,95.30
2022-12-17T07:49:17.219Z,95.10
2022-12-17T07:52:04.915Z,95.40
2022-12-17T07:54:50.616Z,95.20
2022-12-17T07:57:44.866Z,95.40
2022-12-17T08:00:49.400Z,95.20
2022-12-17T08:03:37.053Z,95.40
2022-12-17T08:06:23.938Z,95.20
2022-12-17T08:09:09.967Z,95.40
2022-12-17T08:11:55.873Z,95.10
2022-12-17T08:14:38.076Z,95.30
2022-12-17T08:17:24.003Z,95.20
2022-12-17T08:20:11.353Z,95.20
2022-12-17T08:22:53.652Z,95.20
2022-12-17T08:25:44.885Z,95.20
2022-12-17T08:31:37.349Z,95.20
2022-12-17T08:34:23.723Z,95.40
2022-12-17T08:37:11.256Z,95.20
2022-12-17T08:39:57.097Z,95.20
2022-12-17T08:42:43.013Z,95.20
2022-12-17T08:45:29.401Z,95.30
2022-12-17T08:48:22.377Z,95.20
2022-12-17T08:51:08.415Z,95.40
2022-12-17T08:53:56.105Z,95.20
2022-12-17T08:56:41.815Z,95.40
2022-12-17T08:59:27.759Z,95.30
2022-12-17T09:02:13.783Z,95.30
2022-12-17T09:04:59.686Z,95.30
2022-12-17T09:07:45.672Z,95.20
2022-12-17T09:10:32.640Z,95.30
2022-12-17T09:13:20.976Z,95.40
2022-12-17T09:16:13.550Z,95.50
2022-12-17T09:19:00.038Z,95.60
2022-12-17T09:21:46.970Z,95.50
2022-12-17T09:24:32.842Z,95.60
2022-12-17T09:27:20.030Z,95.50
2022-12-17T09:30:05.916Z,95.60
2022-12-17T09:32:51.791Z,95.50
2022-12-17T09:35:38.012Z,95.50
2022-12-17T09:38:30.130Z,95.60
2022-12-17T09:41:21.618Z,95.80
2022-12-17T09:44:18.013Z,95.80
2022-12-17T09:47:13.412Z,95.80
2022-12-17T09:49:59.800Z,95.90
2022-12-17T09:52:52.022Z,95.70
2022-12-17T09:55:42.096Z,95.90
2022-12-17T09:58:38.498Z,95.90
2022-12-17T10:01:34.663Z,95.90
2022-12-17T10:04:21.743Z,96.00
2022-12-17T10:07:09.141Z,96.00
2022-12-17T10:09:55.915Z,96.00
2022-12-17T10:12:43.232Z,95.90
2022-12-17T10:15:33.849Z,96.00
2022-12-17T10:18:26.905Z,96.10
2022-12-17T10:21:17.365Z,96.10
2022-12-17T10:24:03.258Z,96.10
2022-12-17T10:26:51.502Z,95.90
2022-12-17T10:29:43.868Z,96.10
2022-12-17T10:32:41.728Z,96.30
2022-12-17T10:35:37.506Z,96.30
2022-12-17T10:38:31.491Z,96.40
2022-12-17T10:41:17.483Z,96.30
2022-12-17T10:44:03.527Z,96.10
2022-12-17T10:46:51.930Z,96.30
2022-12-17T10:49:40.536Z,96.40
2022-12-17T10:52:42.412Z,96.40
2022-12-17T10:55:42.170Z,97.00
2022-12-17T10:58:33.471Z,96.50
2022-12-17T11:01:21.158Z,96.60
2022-12-17T11:04:10.871Z,96.60
2022-12-17T11:06:59.767Z,96.60
2022-12-17T11:10:08.759Z,96.60
2022-12-17T11:13:01.159Z,96.80
2022-12-17T11:15:53.306Z,96.70
2022-12-17T11:18:44.679Z,96.70
2022-12-17T11:21:35.052Z,96.80
2022-12-17T11:24:22.904Z,96.80
2022-12-17T11:27:15.279Z,97.00
2022-12-17T11:30:01.125Z,97.00
2022-12-17T11:33:17.121Z,96.90
2022-12-17T11:36:11.104Z,97.10
2022-12-17T11:39:00.539Z,97.00
2022-12-17T11:42:08.084Z,97.00
2022-12-17T11:45:12.287Z,97.00
2022-12-17T11:48:08.813Z,97.10
2022-12-17T11:51:04.380Z,97.10
2022-12-17T11:54:06.282Z,97.10
2022-12-17T11:56:57.247Z,97.30
2022-12-17T11:59:53.280Z,97.10
2022-12-17T12:03:03.799Z,97.00
2022-12-17T12:06:02.598Z,97.20
2022-12-17T12:08:51.924Z,97.10
2022-12-17T12:11:46.804Z,96.90
2022-12-17T12:14:47.916Z,97.10
2022-12-17T12:17:57.988Z,97.10
2022-12-17T12:21:02.804Z,97.20
2022-12-17T12:24:03.853Z,97.00
2022-12-17T12:26:58.715Z,97.10
2022-12-17T12:29:52.358Z,97.10
2022-12-17T12:32:47.274Z,97.00
2022-12-17T12:35:40.256Z,97.10
2022-12-17T12:38:33.139Z,97.00
2022-12-17T12:41:32.983Z,97.00
2022-12-17T12:44:26.033Z,97.00
2022-12-17T12:47:17.636Z,97.00
2022-12-17T12:50:11.017Z,96.90
2022-12-17T12:52:58.327Z,97.00
2022-12-17T12:55:56.925Z,97.30
2022-12-17T12:58:45.953Z,96.90
2022-12-17T13:01:31.935Z,96.90
2022-12-17T13:04:16.779Z,96.60
2022-12-17T13:06:50.745Z,96.80
2022-12-17T13:09:49.324Z,96.90
2022-12-17T13:12:35.682Z,96.90
2022-12-17T13:15:30.256Z,97.00
2022-12-17T13:18:17.870Z,97.20
2022-12-17T13:21:01.037Z,97.00
2022-12-17T13:23:35.991Z,97.00
2022-12-17T13:26:23.294Z,96.90
2022-12-17T13:29:12.718Z,97.00
2022-12-17T13:32:03.992Z,97.00
2022-12-17T13:34:48.109Z,97.10
2022-12-17T13:37:39.796Z,97.00
2022-12-17T13:40:26.496Z,97.00
2022-12-17T13:42:56.259Z,97.00
2022-12-17T13:45:27.384Z,96.60
2022-12-17T13:48:00.266Z,96.90
2022-12-17T13:50:34.810Z,97.00
2022-12-17T13:53:12.026Z,96.90
2022-12-17T13:55:40.551Z,97.00
2022-12-17T13:58:24.533Z,96.70
2022-12-17T14:00:53.043Z,97.00
2022-12-17T14:03:43.138Z,96.70
2022-12-17T14:06:13.356Z,96.90
2022-12-17T14:08:42.188Z,96.80
2022-12-17T14:11:30.064Z,96.80
2022-12-17T14:14:03.534Z,96.80
2022-12-17T14:16:32.297Z,96.80
2022-12-17T14:19:01.394Z,96.80
2022-12-17T14:21:31.134Z,96.60
2022-12-17T14:24:00.003Z,96.90
2022-12-17T14:26:28.481Z,96.70
2022-12-17T14:28:58.977Z,96.60
2022-12-17T14:31:29.721Z,96.80
2022-12-17T14:34:07.476Z,96.80
2022-12-17T14:36:38.067Z,96.80
2022-12-17T14:39:18.169Z,96.80
2022-12-17T14:42:04.609Z,96.90
2022-12-17T14:44:34.935Z,97.00
2022-12-17T14:47:16.925Z,96.70
2022-12-17T14:49:56.979Z,96.90
2022-12-17T14:52:37.567Z,96.80
2022-12-17T14:55:39.344Z,96.80
2022-12-17T14:58:22.240Z,96.80
2022-12-17T15:00:55.612Z,96.70
2022-12-17T15:03:28.657Z,96.70
2022-12-17T15:06:00.799Z,96.70
2022-12-17T15:08:33.417Z,96.60
2022-12-17T15:11:02.230Z,96.80
2022-12-17T15:13:30.909Z,96.60
2022-12-17T15:16:00.817Z,96.50
2022-12-17T15:18:29.345Z,96.30
2022-12-17T15:20:57.723Z,96.40
2022-12-17T15:23:26.643Z,96.50
2022-12-17T15:25:56.001Z,96.60
2022-12-17T15:28:28.385Z,96.70
2022-12-17T15:30:56.892Z,96.70
2022-12-17T15:33:26.691Z,96.40
2022-12-17T15:35:58.075Z,96.40
2022-12-17T15:38:26.462Z,96.50
2022-12-17T15:40:55.230Z,96.40
2022-12-17T15:43:22.613Z,96.50
2022-12-17T15:45:53.075Z,96.30
2022-12-17T15:48:23.687Z,96.70
2022-12-17T15:50:53.385Z,96.70
2022-12-17T15:53:21.747Z,96.60
2022-12-17T15:56:01.483Z,96.40
2022-12-17T15:58:29.929Z,96.60
2022-12-17T16:00:58.564Z,96.60
2022-12-17T16:03:26.998Z,96.50
2022-12-17T16:05:56.715Z,96.40
2022-12-17T16:08:25.085Z,96.30
2022-12-17T16:10:53.432Z,96.30
2022-12-17T16:13:21.740Z,96.40
2022-12-17T16:16:03.398Z,96.60
2022-12-17T16:18:32.824Z,96.70
2022-12-17T16:21:05.738Z,96.60
2022-12-17T16:23:34.802Z,96.60
2022-12-17T16:26:06.373Z,96.60
2022-12-17T16:28:36.794Z,96.60
2022-12-17T16:31:08.454Z,96.50
2022-12-17T16:33:38.801Z,96.40
2022-12-17T16:36:12.548Z,96.50
2022-12-17T16:38:45.555Z,96.50
2022-12-17T16:41:14.982Z,96.50
2022-12-17T16:43:43.853Z,96.40
2022-12-17T16:46:28.284Z,96.30
2022-12-17T16:48:59.139Z,96.50
2022-12-17T16:51:29.918Z,96.40
2022-12-17T16:53:59.005Z,95.90
2022-12-17T16:56:31.110Z,96.10
2022-12-17T16:59:05.456Z,96.30
2022-12-17T17:01:33.932Z,96.40
2022-12-17T17:04:02.551Z,95.90
2022-12-17T17:06:34.103Z,96.10
2022-12-17T17:09:05.365Z,96.10
2022-12-17T17:11:33.797Z,95.90
2022-12-17T17:14:02.189Z,96.00
2022-12-17T17:16:31.341Z,96.00
2022-12-17T17:18:59.732Z,95.90
2022-12-17T17:21:32.439Z,95.90
2022-12-17T17:24:02.539Z,96.10
2022-12-17T17:26:33.576Z,96.20
2022-12-17T17:29:02.444Z,96.10
2022-12-17T17:34:19.300Z,95.90
2022-12-17T17:36:49.042Z,95.90
2022-12-17T17:39:17.380Z,95.90
2022-12-17T17:41:45.770Z,95.70
2022-12-17T17:44:15.114Z,95.70
2022-12-17T17:46:43.721Z,96.00
2022-12-17T17:49:12.660Z,95.80
2022-12-17T17:54:33.609Z,96.00
2022-12-17T17:57:02.404Z,95.80
2022-12-17T17:59:33.742Z,95.90
2022-12-17T18:02:03.735Z,95.80
2022-12-17T18:04:32.927Z,96.10
2022-12-17T18:07:25.125Z,95.90
2022-12-17T18:09:51.012Z,95.80
2022-12-17T18:12:37.036Z,95.90
2022-12-17T18:15:15.789Z,95.90
2022-12-17T18:17:47.630Z,96.10
2022-12-17T18:20:16.827Z,96.10
2022-12-17T18:22:46.653Z,96.10
2022-12-17T18:25:17.780Z,95.90
2022-12-17T18:27:46.399Z,95.90
2022-12-17T18:30:16.326Z,95.90
2022-12-17T18:32:44.940Z,96.10
2022-12-17T18:35:13.519Z,95.90
2022-12-17T18:37:42.222Z,96.00
2022-12-17T18:40:11.978Z,96.00
2022-12-17T18:42:59.022Z,96.10
2022-12-17T18:45:27.362Z,95.70
2022-12-17T18:47:55.752Z,95.70
2022-12-17T18:50:24.103Z,95.70
2022-12-17T18:52:52.529Z,95.80
2022-12-17T18:55:20.881Z,95.80
2022-12-17T18:57:50.659Z,95.90
2022-12-17T19:00:19.699Z,95.90
2022-12-17T19:02:48.175Z,96.00
2022-12-17T19:05:16.979Z,95.70
2022-12-17T19:07:45.366Z,95.90
2022-12-17T19:10:13.816Z,95.80
2022-12-17T19:12:42.221Z,95.90
2022-12-17T19:15:12.339Z,95.90
2022-12-17T19:17:40.739Z,96.00
2022-12-17T19:20:10.958Z,95.80
2022-12-17T19:22:39.330Z,95.90
2022-12-17T19:25:08.193Z,95.70
2022-12-17T19:27:36.570Z,95.80
2022-12-17T19:30:06.333Z,95.70
2022-12-17T19:32:36.055Z,95.90
2022-12-17T19:35:04.788Z,95.70
2022-12-17T19:37:33.125Z,95.80
2022-12-17T19:40:01.496Z,95.70
2022-12-17T19:42:36.792Z,95.70
2022-12-17T19:45:06.808Z,95.60
2022-12-17T19:47:36.534Z,95.70
2022-12-17T19:50:06.038Z,95.60
2022-12-17T19:52:34.386Z,95.80
2022-12-17T19:55:03.031Z,95.60
2022-12-17T19:57:31.756Z,95.60
2022-12-17T20:00:00.150Z,95.50
2022-12-17T20:02:32.857Z,95.60
2022-12-17T20:05:03.004Z,95.40
2022-12-17T20:07:31.373Z,95.60
2022-12-17T20:09:59.723Z,95.40
2022-12-17T20:12:28.023Z,95.40
2022-12-17T20:14:56.807Z,95.60
2022-12-17T20:17:26.112Z,95.30
2022-12-17T20:19:56.386Z,95.40
2022-12-17T20:22:27.772Z,95.50
2022-12-17T20:24:56.085Z,95.60
2022-12-17T20:27:24.528Z,95.60
2022-12-17T20:29:52.892Z,95.60
2022-12-17T20:32:21.461Z,95.40
2022-12-17T20:34:50.393Z,95.40
2022-12-17T20:37:21.881Z,95.40
2022-12-17T20:39:51.738Z,95.50
2022-12-17T20:42:22.251Z,95.50
2022-12-17T20:44:53.555Z,95.40
2022-12-17T20:47:23.937Z,95.30
2022-12-17T20:49:52.261Z,95.40
2022-12-17T20:52:20.794Z,95.40
2022-12-17T20:54:49.499Z,95.30
2022-12-17T20:57:20.993Z,95.60
2022-12-17T20:59:49.475Z,95.40
2022-12-17T21:02:17.954Z,95.30
2022-12-17T21:04:46.670Z,94.90
2022-12-17T21:07:15.048Z,95.10
2022-12-17T21:09:43.426Z,95.40
2022-12-17T21:12:13.541Z,95.30
2022-12-17T21:14:43.321Z,95.40
2022-12-17T21:17:11.951Z,95.30
2022-12-17T21:19:42.415Z,95.40
2022-12-17T21:22:10.769Z,95.60
2022-12-17T21:24:39.702Z,95.20
2022-12-17T21:27:14.272Z,95.30
2022-12-17T21:29:44.521Z,95.40
2022-12-17T21:32:12.908Z,95.40
2022-12-17T21:34:41.450Z,95.40
2022-12-17T21:37:11.290Z,95.40
2022-12-17T21:39:39.821Z,95.40
2022-12-17T21:42:25.948Z,95.40
2022-12-17T21:44:55.660Z,95.20
2022-12-17T21:47:24.555Z,95.40
2022-12-17T21:49:52.982Z,95.30
2022-12-17T21:52:21.423Z,95.10
2022-12-17T21:54:49.801Z,95.00
2022-12-17T21:57:18.196Z,95.00
2022-12-17T21:59:46.589Z,95.30
2022-12-17T22:02:16.478Z,95.20
2022-12-17T22:04:45.141Z,95.10
2022-12-17T22:07:17.203Z,95.10
2022-12-17T22:09:50.879Z,95.20
2022-12-17T22:12:56.094Z,95.30
2022-12-17T22:15:25.774Z,95.40
2022-12-17T22:17:58.525Z,95.50
2022-12-17T22:20:27.852Z,95.40
2022-12-17T22:22:56.303Z,95.30
2022-12-17T22:25:24.929Z,95.20
2022-12-17T22:27:53.508Z,95.20
2022-12-17T22:30:39.586Z,95.20
2022-12-17T22:33:30.083Z,95.20
2022-12-17T22:37:01.836Z,95.20
2022-12-17T22:43:48.354Z,95.40
2022-12-17T22:44:37.656Z,95.10
2022-12-17T22:44:53.321Z,95.30
2022-12-17T22:47:22.422Z,95.20
2022-12-17T22:49:52.212Z,95.20
2022-12-17T22:52:21.483Z,95.10
2022-12-17T22:54:50.157Z,95.20
2022-12-17T22:57:36.364Z,95.20
2022-12-17T23:00:14.114Z,95.40
2022-12-17T23:02:42.521Z,95.20
2022-12-17T23:05:12.376Z,95.00
2022-12-17T23:07:40.747Z,95.00
2022-12-17T23:10:10.134Z,95.10
2022-12-17T23:12:54.240Z,95.20
2022-12-17T23:15:28.557Z,95.10
2022-12-17T23:17:59.713Z,95.20
2022-12-17T23:20:32.116Z,95.20
2022-12-17T23:23:01.092Z,95.20
2022-12-17T23:25:30.379Z,95.10
2022-12-17T23:27:58.835Z,95.20
2022-12-17T23:30:27.616Z,95.10
2022-12-17T23:32:55.994Z,95.10
2022-12-17T23:35:24.446Z,95.00
2022-12-17T23:37:54.166Z,94.90
2022-12-17T23:40:23.132Z,94.80
2022-12-17T23:42:51.497Z,95.20
2022-12-17T23:45:19.983Z,94.80
2022-12-17T23:47:48.324Z,95.00
2022-12-17T23:50:16.736Z,95.00
2022-12-17T23:52:45.068Z,95.10
2022-12-17T23:55:14.790Z,95.10
2022-12-17T23:57:43.145Z,95.10
